ADDS METAR Data INFO
IDs: Format: Raw Decoded Include TAF

Data at: 1053 UTC 24 Nov 2017

KRIW 240953Z AUTO 26010KT 10SM CLR 09/M02 A2982 RMK AO2 SLP063 T00941017
KRIW 240853Z AUTO 24014KT 10SM CLR 11/M02 A2982 RMK AO2 PK WND 25026/0818 SLP062 T01061017 57014
KRIW 240753Z AUTO 26012KT 10SM CLR 09/00 A2983 RMK AO2 SLP071 T00940000
KRIW 240653Z AUTO 27013KT 10SM CLR 09/01 A2986 RMK AO2 SLP086 T00940011 401670033
KRIW 240553Z AUTO 24008KT 10SM CLR 08/00 A2987 RMK AO2 SLP091 T00830000 10150 20061 57015
KRIW 240453Z AUTO 23011G16KT 10SM CLR 10/M01 A2989 RMK AO2 SLP097 T01001011
KRIW 240353Z AUTO 26011KT 10SM CLR 13/M01 A2990 RMK AO2 SLP096 T01281011
KRIW 240253Z AUTO 29009KT 10SM CLR 11/M01 A2992 RMK AO2 SLP107 T01111011 58010
KRIW 240153Z AUTO 26004KT 10SM CLR 12/M01 A2993 RMK AO2 SLP116 T01171011
KRIW 240053Z AUTO 29006KT 10SM CLR 12/M01 A2996 RMK AO2 SLP121 T01221006
KRIW 232353Z AUTO 29014G25KT 10SM CLR 15/M01 A2996 RMK AO2 PK WND 28033/2323 SLP114 T01501011 10167 20083 57009
KRIW 232253Z AUTO 25006KT 10SM CLR 14/01 A2997 RMK AO2 SLP125 T01440011
KRIW 232153Z AUTO 00000KT 10SM CLR 13/02 A2997 RMK AO2 SLP123 T01280017
KRIW 232053Z AUTO 18003KT 10SM CLR 13/02 A2999 RMK AO2 SLP131 T01280017 56027
KRIW 231953Z AUTO 00000KT 10SM CLR 11/02 A3001 RMK AO2 SLP144 T01060022
KRIW 231853Z AUTO 21006KT 10SM CLR 09/02 A3006 RMK AO2 SLP164 T00940022
KRIW 231753Z AUTO 00000KT 10SM CLR 09/02 A3009 RMK AO2 SLP172 T00890017 10094 20044 58015
KRIW 231653Z AUTO 00000KT 10SM CLR 08/02 A3011 RMK AO2 SLP183 T00830017
KRIW 231553Z AUTO 17006KT 10SM CLR 07/01 A3012 RMK AO2 SLP185 T00670006
KRIW 231453Z AUTO 21009KT 10SM CLR 07/01 A3014 RMK AO2 SLP185 T00720011 58013
KRIW 231353Z AUTO 23008KT 10SM CLR 05/01 A3015 RMK AO2 SLP193 T00500011
KRIW 231253Z AUTO 24008KT 10SM CLR 06/01 A3017 RMK AO2 SLP196 T00560011
KRIW 231153Z AUTO 22009KT 10SM CLR 06/01 A3018 RMK AO2 SLP198 T00560011 10072 20033 56014
KRIW 231053Z AUTO 22007KT 10SM CLR 04/01 A3020 RMK AO2 SLP205 T00440011
KRIW 230953Z AUTO 26011KT 10SM CLR 07/02 A3020 RMK AO2 SLP198 T00670017
KRIW 230853Z AUTO 27008KT 10SM CLR 06/02 A3023 RMK AO2 SLP214 T00560017 58010
KRIW 230753Z AUTO 23006KT 10SM CLR 06/02 A3024 RMK AO2 SLP221 T00610017
KRIW 230653Z AUTO 24009KT 10SM CLR 04/01 A3027 RMK AO2 SLP237 T00440011 401560033
KRIW 230553Z AUTO 25010KT 10SM CLR 07/02 A3026 RMK AO2 SLP234 T00670022 10133 20056 50001
KRIW 230453Z AUTO 29009KT 10SM CLR 06/02 A3027 RMK AO2 SLP239 T00610022
KRIW 230353Z AUTO 26007KT 10SM CLR 09/03 A3027 RMK AO2 SLP231 T00890028
KRIW 230253Z AUTO 25011KT 10SM CLR 11/03 A3026 RMK AO2 SLP228 T01060028 50004
KRIW 230153Z AUTO 26014KT 10SM CLR 12/03 A3026 RMK AO2 SLP229 T01170028
KRIW 230053Z AUTO 28015KT 10SM CLR 12/03 A3025 RMK AO2 SLP214 T01220028
KRIW 222353Z AUTO 27010KT 10SM BKN100 13/03 A3025 RMK AO2 PK WND 27027/2305 SLP221 T01280028 10156 20083 53003